sensor_id;sensor_type;location;lat;lon;timestamp;temperature;humidity
59148;DHT22;44930;52.878;6.168;2023-11-19T00:02:21;12.00;99.90
59148;DHT22;44930;52.878;6.168;2023-11-19T00:04:47;12.00;99.90
59148;DHT22;44930;52.878;6.168;2023-11-19T00:09:39;12.10;99.90
59148;DHT22;44930;52.878;6.168;2023-11-19T00:12:06;12.20;99.90
59148;DHT22;44930;52.878;6.168;2023-11-19T00:14:32;12.20;99.90
59148;DHT22;44930;52.878;6.168;2023-11-19T00:16:58;12.30;99.90
59148;DHT22;44930;52.878;6.168;2023-11-19T00:19:24;12.20;99.90
59148;DHT22;44930;52.878;6.168;2023-11-19T00:21:50;12.30;99.90
59148;DHT22;44930;52.878;6.168;2023-11-19T00:24:16;12.30;99.90
59148;DHT22;44930;52.878;6.168;2023-11-19T00:26:43;12.30;99.90
59148;DHT22;44930;52.878;6.168;2023-11-19T00:29:08;12.30;99.90
59148;DHT22;44930;52.878;6.168;2023-11-19T00:31:34;12.30;99.90
59148;DHT22;44930;52.878;6.168;2023-11-19T00:34:00;12.30;99.90
59148;DHT22;44930;52.878;6.168;2023-11-19T00:36:27;12.30;99.90
59148;DHT22;44930;52.878;6.168;2023-11-19T00:43:46;12.20;99.90
59148;DHT22;44930;52.878;6.168;2023-11-19T00:48:39;12.40;99.90
59148;DHT22;44930;52.878;6.168;2023-11-19T00:53:30;12.40;99.90
59148;DHT22;44930;52.878;6.168;2023-11-19T00:58:23;12.30;99.90
59148;DHT22;44930;52.878;6.168;2023-11-19T01:00:49;12.20;99.90
59148;DHT22;44930;52.878;6.168;2023-11-19T01:03:14;12.30;99.90
59148;DHT22;44930;52.878;6.168;2023-11-19T01:05:41;12.30;99.90
59148;DHT22;44930;52.878;6.168;2023-11-19T01:08:07;12.30;99.90
59148;DHT22;44930;52.878;6.168;2023-11-19T01:10:33;12.40;99.90
59148;DHT22;44930;52.878;6.168;2023-11-19T01:12:59;12.20;99.90
59148;DHT22;44930;52.878;6.168;2023-11-19T01:15:25;12.10;99.90
59148;DHT22;44930;52.878;6.168;2023-11-19T01:17:50;12.20;99.90
59148;DHT22;44930;52.878;6.168;2023-11-19T01:20:16;12.30;99.90
59148;DHT22;44930;52.878;6.168;2023-11-19T01:22:42;12.30;99.90
59148;DHT22;44930;52.878;6.168;2023-11-19T01:27:35;12.20;99.90
59148;DHT22;44930;52.878;6.168;2023-11-19T01:32:30;12.30;99.90
59148;DHT22;44930;52.878;6.168;2023-11-19T01:34:55;12.30;99.90
59148;DHT22;44930;52.878;6.168;2023-11-19T01:37:21;12.20;99.90
59148;DHT22;44930;52.878;6.168;2023-11-19T01:39:46;12.30;99.90
59148;DHT22;44930;52.878;6.168;2023-11-19T01:42:13;12.30;99.90
59148;DHT22;44930;52.878;6.168;2023-11-19T01:44:38;12.30;99.90
59148;DHT22;44930;52.878;6.168;2023-11-19T01:47:04;12.30;99.90
59148;DHT22;44930;52.878;6.168;2023-11-19T01:49:32;12.40;99.90
59148;DHT22;44930;52.878;6.168;2023-11-19T01:54:25;12.30;99.90
59148;DHT22;44930;52.878;6.168;2023-11-19T01:56:52;12.30;99.90
59148;DHT22;44930;52.878;6.168;2023-11-19T02:04:17;12.20;99.90
59148;DHT22;44930;52.878;6.168;2023-11-19T02:06:43;12.10;99.90
59148;DHT22;44930;52.878;6.168;2023-11-19T02:09:09;12.10;99.90
59148;DHT22;44930;52.878;6.168;2023-11-19T02:16:29;12.20;99.90
59148;DHT22;44930;52.878;6.168;2023-11-19T02:18:55;12.10;99.90
59148;DHT22;44930;52.878;6.168;2023-11-19T02:21:20;12.10;99.90
59148;DHT22;44930;52.878;6.168;2023-11-19T02:28:48;12.10;99.90
59148;DHT22;44930;52.878;6.168;2023-11-19T02:31:14;12.30;99.90
59148;DHT22;44930;52.878;6.168;2023-11-19T02:33:40;12.20;99.90
59148;DHT22;44930;52.878;6.168;2023-11-19T02:36:07;12.10;99.90
59148;DHT22;44930;52.878;6.168;2023-11-19T02:38:34;12.10;99.90
59148;DHT22;44930;52.878;6.168;2023-11-19T02:41:02;12.10;99.90
59148;DHT22;44930;52.878;6.168;2023-11-19T02:43:28;12.10;99.90
59148;DHT22;44930;52.878;6.168;2023-11-19T02:48:21;12.10;99.90
59148;DHT22;44930;52.878;6.168;2023-11-19T02:50:46;12.20;99.90
59148;DHT22;44930;52.878;6.168;2023-11-19T02:53:13;12.00;99.90
59148;DHT22;44930;52.878;6.168;2023-11-19T02:58:06;12.20;99.90
59148;DHT22;44930;52.878;6.168;2023-11-19T03:00:45;12.00;99.90
59148;DHT22;44930;52.878;6.168;2023-11-19T03:03:18;12.10;99.90
59148;DHT22;44930;52.878;6.168;2023-11-19T03:05:46;12.20;99.90
59148;DHT22;44930;52.878;6.168;2023-11-19T03:08:12;12.10;99.90
59148;DHT22;44930;52.878;6.168;2023-11-19T03:15:30;12.20;99.90
59148;DHT22;44930;52.878;6.168;2023-11-19T03:17:56;12.20;99.90
59148;DHT22;44930;52.878;6.168;2023-11-19T03:20:22;12.10;99.90
59148;DHT22;44930;52.878;6.168;2023-11-19T03:22:49;12.00;99.90
59148;DHT22;44930;52.878;6.168;2023-11-19T03:25:16;12.10;99.90
59148;DHT22;44930;52.878;6.168;2023-11-19T03:30:10;12.30;99.90
59148;DHT22;44930;52.878;6.168;2023-11-19T03:32:36;12.20;99.90
59148;DHT22;44930;52.878;6.168;2023-11-19T03:35:02;12.10;99.90
59148;DHT22;44930;52.878;6.168;2023-11-19T03:37:29;12.10;99.90
59148;DHT22;44930;52.878;6.168;2023-11-19T03:42:28;12.00;99.90
59148;DHT22;44930;52.878;6.168;2023-11-19T03:44:55;12.10;99.90
59148;DHT22;44930;52.878;6.168;2023-11-19T03:49:51;12.30;99.90
59148;DHT22;44930;52.878;6.168;2023-11-19T03:52:17;11.90;99.90
59148;DHT22;44930;52.878;6.168;2023-11-19T03:54:43;12.10;99.90
59148;DHT22;44930;52.878;6.168;2023-11-19T03:59:39;12.00;99.90
59148;DHT22;44930;52.878;6.168;2023-11-19T04:02:05;11.90;99.90
59148;DHT22;44930;52.878;6.168;2023-11-19T04:04:31;11.90;99.90
59148;DHT22;44930;52.878;6.168;2023-11-19T04:06:57;11.90;99.90
59148;DHT22;44930;52.878;6.168;2023-11-19T04:09:24;11.90;99.90
59148;DHT22;44930;52.878;6.168;2023-11-19T04:11:49;11.90;99.90
59148;DHT22;44930;52.878;6.168;2023-11-19T04:14:15;11.70;99.90
59148;DHT22;44930;52.878;6.168;2023-11-19T04:16:44;11.90;99.90
59148;DHT22;44930;52.878;6.168;2023-11-19T04:19:10;11.90;99.90
59148;DHT22;44930;52.878;6.168;2023-11-19T04:21:36;11.90;99.90
59148;DHT22;44930;52.878;6.168;2023-11-19T04:24:01;11.90;99.90
59148;DHT22;44930;52.878;6.168;2023-11-19T04:26:27;12.00;99.90
59148;DHT22;44930;52.878;6.168;2023-11-19T04:28:52;12.00;99.90
59148;DHT22;44930;52.878;6.168;2023-11-19T04:31:18;11.80;99.90
59148;DHT22;44930;52.878;6.168;2023-11-19T04:36:12;12.30;99.90
59148;DHT22;44930;52.878;6.168;2023-11-19T04:38:39;11.90;99.90
59148;DHT22;44930;52.878;6.168;2023-11-19T04:41:05;11.80;99.90
59148;DHT22;44930;52.878;6.168;2023-11-19T04:43:32;11.90;99.90
59148;DHT22;44930;52.878;6.168;2023-11-19T04:45:58;11.80;99.90
59148;DHT22;44930;52.878;6.168;2023-11-19T04:48:24;12.00;99.90
59148;DHT22;44930;52.878;6.168;2023-11-19T04:50:49;11.80;99.90
59148;DHT22;44930;52.878;6.168;2023-11-19T04:55:43;11.70;99.90
59148;DHT22;44930;52.878;6.168;2023-11-19T04:58:08;11.70;99.90
59148;DHT22;44930;52.878;6.168;2023-11-19T05:00:34;11.80;99.90
59148;DHT22;44930;52.878;6.168;2023-11-19T05:03:00;11.80;99.90
59148;DHT22;44930;52.878;6.168;2023-11-19T05:05:25;11.90;99.90
59148;DHT22;44930;52.878;6.168;2023-11-19T05:07:51;11.80;99.90
59148;DHT22;44930;52.878;6.168;2023-11-19T05:10:16;11.70;99.90
59148;DHT22;44930;52.878;6.168;2023-11-19T05:12:42;11.90;99.90
59148;DHT22;44930;52.878;6.168;2023-11-19T05:15:08;11.80;99.90
59148;DHT22;44930;52.878;6.168;2023-11-19T05:17:33;11.90;99.90
59148;DHT22;44930;52.878;6.168;2023-11-19T05:19:59;11.90;99.90
59148;DHT22;44930;52.878;6.168;2023-11-19T05:22:25;11.90;99.90
59148;DHT22;44930;52.878;6.168;2023-11-19T05:24:51;11.90;99.90
59148;DHT22;44930;52.878;6.168;2023-11-19T05:27:17;11.90;99.90
59148;DHT22;44930;52.878;6.168;2023-11-19T05:34:35;12.00;99.90
59148;DHT22;44930;52.878;6.168;2023-11-19T05:39:28;11.90;99.90
59148;DHT22;44930;52.878;6.168;2023-11-19T05:41:53;11.80;99.90
59148;DHT22;44930;52.878;6.168;2023-11-19T05:44:19;11.60;99.90
59148;DHT22;44930;52.878;6.168;2023-11-19T05:46:45;11.80;99.90
59148;DHT22;44930;52.878;6.168;2023-11-19T05:49:11;11.90;99.90
59148;DHT22;44930;52.878;6.168;2023-11-19T05:51:40;11.80;99.90
59148;DHT22;44930;52.878;6.168;2023-11-19T05:54:09;11.70;99.90
59148;DHT22;44930;52.878;6.168;2023-11-19T05:56:36;11.70;99.90
59148;DHT22;44930;52.878;6.168;2023-11-19T05:59:02;11.70;99.90
59148;DHT22;44930;52.878;6.168;2023-11-19T06:01:29;11.70;99.90
59148;DHT22;44930;52.878;6.168;2023-11-19T06:03:55;11.80;99.90
59148;DHT22;44930;52.878;6.168;2023-11-19T06:06:20;11.70;99.90
59148;DHT22;44930;52.878;6.168;2023-11-19T06:08:46;11.70;99.90
59148;DHT22;44930;52.878;6.168;2023-11-19T06:11:12;11.40;99.90
59148;DHT22;44930;52.878;6.168;2023-11-19T06:13:44;11.60;99.90
59148;DHT22;44930;52.878;6.168;2023-11-19T06:16:10;11.60;99.90
59148;DHT22;44930;52.878;6.168;2023-11-19T06:18:36;11.60;99.90
59148;DHT22;44930;52.878;6.168;2023-11-19T06:23:28;11.70;99.90
59148;DHT22;44930;52.878;6.168;2023-11-19T06:25:53;11.70;99.90
59148;DHT22;44930;52.878;6.168;2023-11-19T06:28:19;11.60;99.90
59148;DHT22;44930;52.878;6.168;2023-11-19T06:30:44;11.60;99.90
59148;DHT22;44930;52.878;6.168;2023-11-19T06:33:13;11.20;99.90
59148;DHT22;44930;52.878;6.168;2023-11-19T06:35:38;11.50;99.90
59148;DHT22;44930;52.878;6.168;2023-11-19T06:38:04;11.70;99.90
59148;DHT22;44930;52.878;6.168;2023-11-19T06:40:31;11.60;99.90
59148;DHT22;44930;52.878;6.168;2023-11-19T06:42:56;11.50;99.90
59148;DHT22;44930;52.878;6.168;2023-11-19T06:52:40;11.50;99.90
59148;DHT22;44930;52.878;6.168;2023-11-19T06:55:06;11.50;99.90
59148;DHT22;44930;52.878;6.168;2023-11-19T06:57:32;11.40;99.90
59148;DHT22;44930;52.878;6.168;2023-11-19T06:59:58;11.50;99.90
59148;DHT22;44930;52.878;6.168;2023-11-19T07:02:24;11.60;99.90
59148;DHT22;44930;52.878;6.168;2023-11-19T07:04:50;11.30;99.90
59148;DHT22;44930;52.878;6.168;2023-11-19T07:07:16;11.50;99.90
59148;DHT22;44930;52.878;6.168;2023-11-19T07:09:42;11.40;99.90
59148;DHT22;44930;52.878;6.168;2023-11-19T07:12:08;11.50;99.90
59148;DHT22;44930;52.878;6.168;2023-11-19T07:14:34;11.50;99.90
59148;DHT22;44930;52.878;6.168;2023-11-19T07:19:26;11.50;99.90
59148;DHT22;44930;52.878;6.168;2023-11-19T07:21:52;11.70;99.90
59148;DHT22;44930;52.878;6.168;2023-11-19T07:24:20;11.70;99.90
59148;DHT22;44930;52.878;6.168;2023-11-19T07:26:47;11.60;99.90
59148;DHT22;44930;52.878;6.168;2023-11-19T07:29:15;11.50;99.90
59148;DHT22;44930;52.878;6.168;2023-11-19T07:36:37;11.50;99.90
59148;DHT22;44930;52.878;6.168;2023-11-19T07:39:03;11.80;99.90
59148;DHT22;44930;52.878;6.168;2023-11-19T07:41:30;11.40;99.90
59148;DHT22;44930;52.878;6.168;2023-11-19T07:43:56;11.40;99.90
59148;DHT22;44930;52.878;6.168;2023-11-19T07:46:22;11.60;99.90
59148;DHT22;44930;52.878;6.168;2023-11-19T07:51:14;11.60;99.90
59148;DHT22;44930;52.878;6.168;2023-11-19T07:56:07;11.50;99.90
59148;DHT22;44930;52.878;6.168;2023-11-19T08:00:59;11.70;99.90
59148;DHT22;44930;52.878;6.168;2023-11-19T08:05:50;11.70;99.90
59148;DHT22;44930;52.878;6.168;2023-11-19T08:08:16;11.70;99.90
59148;DHT22;44930;52.878;6.168;2023-11-19T08:10:42;11.60;99.90
59148;DHT22;44930;52.878;6.168;2023-11-19T08:25:20;11.90;99.90
59148;DHT22;44930;52.878;6.168;2023-11-19T08:27:45;11.80;99.90
59148;DHT22;44930;52.878;6.168;2023-11-19T08:30:12;11.80;99.90
59148;DHT22;44930;52.878;6.168;2023-11-19T08:32:38;11.80;99.90
59148;DHT22;44930;52.878;6.168;2023-11-19T08:35:03;11.90;99.90
59148;DHT22;44930;52.878;6.168;2023-11-19T08:37:29;11.80;99.90
59148;DHT22;44930;52.878;6.168;2023-11-19T08:39:55;11.90;99.90
59148;DHT22;44930;52.878;6.168;2023-11-19T08:42:21;11.90;99.90
59148;DHT22;44930;52.878;6.168;2023-11-19T08:44:50;12.10;99.90
59148;DHT22;44930;52.878;6.168;2023-11-19T08:49:45;12.20;99.90
59148;DHT22;44930;52.878;6.168;2023-11-19T08:52:11;12.00;99.90
59148;DHT22;44930;52.878;6.168;2023-11-19T08:54:37;12.10;99.90
59148;DHT22;44930;52.878;6.168;2023-11-19T08:57:03;12.00;99.90
59148;DHT22;44930;52.878;6.168;2023-11-19T09:01:55;12.20;99.90
59148;DHT22;44930;52.878;6.168;2023-11-19T09:04:21;12.10;99.90
59148;DHT22;44930;52.878;6.168;2023-11-19T09:11:40;12.20;99.90
59148;DHT22;44930;52.878;6.168;2023-11-19T09:14:06;12.20;99.90
59148;DHT22;44930;52.878;6.168;2023-11-19T09:16:32;12.30;99.90
59148;DHT22;44930;52.878;6.168;2023-11-19T09:18:58;12.10;99.90
59148;DHT22;44930;52.878;6.168;2023-11-19T09:21:25;12.20;99.90
59148;DHT22;44930;52.878;6.168;2023-11-19T09:23:50;12.10;99.90
59148;DHT22;44930;52.878;6.168;2023-11-19T09:26:16;12.20;99.90
59148;DHT22;44930;52.878;6.168;2023-11-19T09:28:42;12.20;99.90
59148;DHT22;44930;52.878;6.168;2023-11-19T09:31:17;12.30;99.90
59148;DHT22;44930;52.878;6.168;2023-11-19T09:33:44;12.20;99.90
59148;DHT22;44930;52.878;6.168;2023-11-19T09:36:11;12.20;99.90
59148;DHT22;44930;52.878;6.168;2023-11-19T09:38:42;12.20;99.90
59148;DHT22;44930;52.878;6.168;2023-11-19T09:41:09;12.20;99.90
59148;DHT22;44930;52.878;6.168;2023-11-19T09:43:35;12.40;99.90
59148;DHT22;44930;52.878;6.168;2023-11-19T09:46:06;12.30;99.90
59148;DHT22;44930;52.878;6.168;2023-11-19T09:48:37;12.40;99.90
59148;DHT22;44930;52.878;6.168;2023-11-19T09:51:04;12.20;99.90
59148;DHT22;44930;52.878;6.168;2023-11-19T09:53:31;12.20;99.90
59148;DHT22;44930;52.878;6.168;2023-11-19T09:58:25;12.10;99.90
59148;DHT22;44930;52.878;6.168;2023-11-19T10:00:51;12.10;99.90
59148;DHT22;44930;52.878;6.168;2023-11-19T10:03:17;12.10;99.90
59148;DHT22;44930;52.878;6.168;2023-11-19T10:05:43;12.10;99.90
59148;DHT22;44930;52.878;6.168;2023-11-19T10:08:09;12.10;99.90
59148;DHT22;44930;52.878;6.168;2023-11-19T10:10:36;12.00;99.90
59148;DHT22;44930;52.878;6.168;2023-11-19T10:15:35;12.10;99.90
59148;DHT22;44930;52.878;6.168;2023-11-19T10:18:01;12.00;99.90
59148;DHT22;44930;52.878;6.168;2023-11-19T10:22:53;12.00;99.90
59148;DHT22;44930;52.878;6.168;2023-11-19T10:27:50;12.30;99.90
59148;DHT22;44930;52.878;6.168;2023-11-19T10:33:06;12.40;99.90
59148;DHT22;44930;52.878;6.168;2023-11-19T10:35:33;12.40;99.90
59148;DHT22;44930;52.878;6.168;2023-11-19T10:38:18;12.50;99.90
59148;DHT22;44930;52.878;6.168;2023-11-19T10:40:44;12.50;99.90
59148;DHT22;44930;52.878;6.168;2023-11-19T10:45:37;12.70;99.90
59148;DHT22;44930;52.878;6.168;2023-11-19T10:50:43;12.40;99.90
59148;DHT22;44930;52.878;6.168;2023-11-19T10:58:10;12.00;99.90
59148;DHT22;44930;52.878;6.168;2023-11-19T11:03:02;12.10;99.90
59148;DHT22;44930;52.878;6.168;2023-11-19T11:05:32;12.10;99.90
59148;DHT22;44930;52.878;6.168;2023-11-19T11:08:01;12.10;99.90
59148;DHT22;44930;52.878;6.168;2023-11-19T11:10:31;12.10;99.90
59148;DHT22;44930;52.878;6.168;2023-11-19T11:12:59;12.10;99.90
59148;DHT22;44930;52.878;6.168;2023-11-19T11:15:29;12.10;99.90
59148;DHT22;44930;52.878;6.168;2023-11-19T11:18:00;12.00;99.90
59148;DHT22;44930;52.878;6.168;2023-11-19T11:26:20;12.00;99.90
59148;DHT22;44930;52.878;6.168;2023-11-19T11:29:14;11.90;99.90
59148;DHT22;44930;52.878;6.168;2023-11-19T11:37:18;12.30;99.90
59148;DHT22;44930;52.878;6.168;2023-11-19T11:39:46;12.00;99.90
59148;DHT22;44930;52.878;6.168;2023-11-19T11:45:01;11.90;99.90
59148;DHT22;44930;52.878;6.168;2023-11-19T11:55:36;12.10;99.90
59148;DHT22;44930;52.878;6.168;2023-11-19T11:58:08;12.20;99.90
59148;DHT22;44930;52.878;6.168;2023-11-19T12:00:39;11.70;99.90
59148;DHT22;44930;52.878;6.168;2023-11-19T12:03:07;12.00;99.90
59148;DHT22;44930;52.878;6.168;2023-11-19T12:10:51;11.90;99.90
59148;DHT22;44930;52.878;6.168;2023-11-19T12:13:17;11.90;99.90
59148;DHT22;44930;52.878;6.168;2023-11-19T12:18:29;12.00;99.90
59148;DHT22;44930;52.878;6.168;2023-11-19T12:20:56;11.80;99.90
59148;DHT22;44930;52.878;6.168;2023-11-19T12:23:22;11.90;99.90
59148;DHT22;44930;52.878;6.168;2023-11-19T12:25:48;11.90;99.90
59148;DHT22;44930;52.878;6.168;2023-11-19T12:28:17;11.80;99.90
59148;DHT22;44930;52.878;6.168;2023-11-19T12:30:43;11.90;99.90
59148;DHT22;44930;52.878;6.168;2023-11-19T12:33:09;11.80;99.90
59148;DHT22;44930;52.878;6.168;2023-11-19T12:35:43;11.80;99.90
59148;DHT22;44930;52.878;6.168;2023-11-19T12:38:18;11.80;99.90
59148;DHT22;44930;52.878;6.168;2023-11-19T12:43:21;11.80;99.90
59148;DHT22;44930;52.878;6.168;2023-11-19T12:45:50;11.90;99.90
59148;DHT22;44930;52.878;6.168;2023-11-19T12:48:15;11.90;99.90
59148;DHT22;44930;52.878;6.168;2023-11-19T12:51:01;12.00;99.90
59148;DHT22;44930;52.878;6.168;2023-11-19T12:55:55;11.90;99.90
59148;DHT22;44930;52.878;6.168;2023-11-19T12:58:36;12.00;99.90
59148;DHT22;44930;52.878;6.168;2023-11-19T13:01:06;11.50;99.90
59148;DHT22;44930;52.878;6.168;2023-11-19T13:03:33;11.80;99.90
59148;DHT22;44930;52.878;6.168;2023-11-19T13:06:07;12.20;99.90
59148;DHT22;44930;52.878;6.168;2023-11-19T13:08:43;11.80;99.90
59148;DHT22;44930;52.878;6.168;2023-11-19T13:11:11;11.90;99.90
59148;DHT22;44930;52.878;6.168;2023-11-19T13:21:15;12.10;99.90
59148;DHT22;44930;52.878;6.168;2023-11-19T13:23:40;12.10;99.90
59148;DHT22;44930;52.878;6.168;2023-11-19T13:26:06;12.10;99.90
59148;DHT22;44930;52.878;6.168;2023-11-19T13:28:31;12.10;99.90
59148;DHT22;44930;52.878;6.168;2023-11-19T13:30:57;12.10;99.90
59148;DHT22;44930;52.878;6.168;2023-11-19T13:33:23;12.20;99.90
59148;DHT22;44930;52.878;6.168;2023-11-19T13:35:49;12.20;99.90
59148;DHT22;44930;52.878;6.168;2023-11-19T13:40:40;12.30;99.90
59148;DHT22;44930;52.878;6.168;2023-11-19T13:43:06;12.20;99.90
59148;DHT22;44930;52.878;6.168;2023-11-19T13:45:32;12.20;99.90
59148;DHT22;44930;52.878;6.168;2023-11-19T13:47:58;12.20;99.90
59148;DHT22;44930;52.878;6.168;2023-11-19T13:50:24;12.10;99.90
59148;DHT22;44930;52.878;6.168;2023-11-19T13:52:49;12.20;99.90
59148;DHT22;44930;52.878;6.168;2023-11-19T13:57:42;12.10;99.90
59148;DHT22;44930;52.878;6.168;2023-11-19T14:00:09;12.20;99.90
59148;DHT22;44930;52.878;6.168;2023-11-19T14:05:07;12.10;99.90
59148;DHT22;44930;52.878;6.168;2023-11-19T14:07:32;12.00;99.90
59148;DHT22;44930;52.878;6.168;2023-11-19T14:09:59;12.00;99.90
59148;DHT22;44930;52.878;6.168;2023-11-19T14:12:24;12.00;99.90
59148;DHT22;44930;52.878;6.168;2023-11-19T14:14:50;11.90;99.90
59148;DHT22;44930;52.878;6.168;2023-11-19T14:17:16;11.90;99.90
59148;DHT22;44930;52.878;6.168;2023-11-19T14:19:42;12.00;99.90
59148;DHT22;44930;52.878;6.168;2023-11-19T14:22:08;11.80;99.90
59148;DHT22;44930;52.878;6.168;2023-11-19T14:24:37;11.80;99.90
59148;DHT22;44930;52.878;6.168;2023-11-19T14:27:03;11.90;99.90
59148;DHT22;44930;52.878;6.168;2023-11-19T14:31:56;11.90;99.90
59148;DHT22;44930;52.878;6.168;2023-11-19T14:34:21;11.90;99.90
59148;DHT22;44930;52.878;6.168;2023-11-19T14:39:14;11.90;99.90
59148;DHT22;44930;52.878;6.168;2023-11-19T14:44:05;11.80;99.90
59148;DHT22;44930;52.878;6.168;2023-11-19T14:46:31;11.90;99.90
59148;DHT22;44930;52.878;6.168;2023-11-19T14:48:57;11.90;99.90
59148;DHT22;44930;52.878;6.168;2023-11-19T14:51:22;11.70;99.90
59148;DHT22;44930;52.878;6.168;2023-11-19T14:53:48;12.00;99.90
59148;DHT22;44930;52.878;6.168;2023-11-19T14:58:40;11.90;99.90
59148;DHT22;44930;52.878;6.168;2023-11-19T15:01:06;11.90;99.90
59148;DHT22;44930;52.878;6.168;2023-11-19T15:03:33;11.90;99.90
59148;DHT22;44930;52.878;6.168;2023-11-19T15:05:58;11.90;99.90
59148;DHT22;44930;52.878;6.168;2023-11-19T15:08:25;12.00;99.90
59148;DHT22;44930;52.878;6.168;2023-11-19T15:10:50;11.90;99.90
59148;DHT22;44930;52.878;6.168;2023-11-19T15:13:16;12.00;99.90
59148;DHT22;44930;52.878;6.168;2023-11-19T15:18:07;12.00;99.90
59148;DHT22;44930;52.878;6.168;2023-11-19T15:20:35;12.00;99.90
59148;DHT22;44930;52.878;6.168;2023-11-19T15:32:46;11.60;99.90
59148;DHT22;44930;52.878;6.168;2023-11-19T15:35:12;11.60;99.90
59148;DHT22;44930;52.878;6.168;2023-11-19T15:37:38;11.50;99.90
59148;DHT22;44930;52.878;6.168;2023-11-19T15:40:07;11.40;99.90
59148;DHT22;44930;52.878;6.168;2023-11-19T15:42:37;11.60;99.90
59148;DHT22;44930;52.878;6.168;2023-11-19T15:45:03;11.50;99.90
59148;DHT22;44930;52.878;6.168;2023-11-19T15:47:30;11.50;99.90
59148;DHT22;44930;52.878;6.168;2023-11-19T15:49:56;11.40;99.90
59148;DHT22;44930;52.878;6.168;2023-11-19T15:52:22;11.40;99.90
59148;DHT22;44930;52.878;6.168;2023-11-19T15:54:47;11.30;99.90
59148;DHT22;44930;52.878;6.168;2023-11-19T15:57:13;11.30;99.90
59148;DHT22;44930;52.878;6.168;2023-11-19T15:59:39;11.40;99.90
59148;DHT22;44930;52.878;6.168;2023-11-19T16:02:04;11.30;99.90
59148;DHT22;44930;52.878;6.168;2023-11-19T16:04:30;11.40;99.90
59148;DHT22;44930;52.878;6.168;2023-11-19T16:06:55;11.30;99.90
59148;DHT22;44930;52.878;6.168;2023-11-19T16:11:50;11.40;99.90
59148;DHT22;44930;52.878;6.168;2023-11-19T16:14:16;11.30;99.90
59148;DHT22;44930;52.878;6.168;2023-11-19T16:16:41;11.20;99.90
59148;DHT22;44930;52.878;6.168;2023-11-19T16:19:07;11.20;99.90
59148;DHT22;44930;52.878;6.168;2023-11-19T16:21:34;11.40;99.90
59148;DHT22;44930;52.878;6.168;2023-11-19T16:26:29;11.20;99.90
59148;DHT22;44930;52.878;6.168;2023-11-19T16:31:22;11.20;99.90
59148;DHT22;44930;52.878;6.168;2023-11-19T16:33:48;11.10;99.90
59148;DHT22;44930;52.878;6.168;2023-11-19T16:41:07;11.30;99.90
59148;DHT22;44930;52.878;6.168;2023-11-19T16:43:32;11.30;99.90
59148;DHT22;44930;52.878;6.168;2023-11-19T16:45:58;11.30;99.90
59148;DHT22;44930;52.878;6.168;2023-11-19T16:50:50;11.30;99.90
59148;DHT22;44930;52.878;6.168;2023-11-19T16:55:44;11.10;99.90
59148;DHT22;44930;52.878;6.168;2023-11-19T16:58:10;11.10;99.90
59148;DHT22;44930;52.878;6.168;2023-11-19T17:00:36;11.00;99.90
59148;DHT22;44930;52.878;6.168;2023-11-19T17:03:05;11.20;99.90
59148;DHT22;44930;52.878;6.168;2023-11-19T17:05:31;11.10;99.90
59148;DHT22;44930;52.878;6.168;2023-11-19T17:07:59;11.10;99.90
59148;DHT22;44930;52.878;6.168;2023-11-19T17:10:25;11.10;99.90
59148;DHT22;44930;52.878;6.168;2023-11-19T17:12:50;11.10;99.90
59148;DHT22;44930;52.878;6.168;2023-11-19T17:17:43;11.10;99.90
59148;DHT22;44930;52.878;6.168;2023-11-19T17:20:10;11.00;99.90
59148;DHT22;44930;52.878;6.168;2023-11-19T17:22:37;10.90;99.90
59148;DHT22;44930;52.878;6.168;2023-11-19T17:25:04;12.40;99.90
59148;DHT22;44930;52.878;6.168;2023-11-19T17:30:04;11.00;99.90
59148;DHT22;44930;52.878;6.168;2023-11-19T17:32:30;11.00;99.90
59148;DHT22;44930;52.878;6.168;2023-11-19T17:34:57;10.90;99.90
59148;DHT22;44930;52.878;6.168;2023-11-19T17:37:24;10.80;99.90
59148;DHT22;44930;52.878;6.168;2023-11-19T17:39:49;10.90;99.90
59148;DHT22;44930;52.878;6.168;2023-11-19T17:42:16;10.90;99.90
59148;DHT22;44930;52.878;6.168;2023-11-19T17:44:41;10.70;99.90
59148;DHT22;44930;52.878;6.168;2023-11-19T17:51:59;10.90;99.90
59148;DHT22;44930;52.878;6.168;2023-11-19T17:54:25;10.80;99.90
59148;DHT22;44930;52.878;6.168;2023-11-19T17:59:17;10.90;99.90
59148;DHT22;44930;52.878;6.168;2023-11-19T18:01:42;10.90;99.90
59148;DHT22;44930;52.878;6.168;2023-11-19T18:04:08;10.80;99.90
59148;DHT22;44930;52.878;6.168;2023-11-19T18:09:03;10.90;99.90
59148;DHT22;44930;52.878;6.168;2023-11-19T18:11:29;10.80;99.90
59148;DHT22;44930;52.878;6.168;2023-11-19T18:14:01;10.90;99.90
59148;DHT22;44930;52.878;6.168;2023-11-19T18:16:27;11.00;99.90
59148;DHT22;44930;52.878;6.168;2023-11-19T18:18:53;11.00;99.90
59148;DHT22;44930;52.878;6.168;2023-11-19T18:21:19;10.90;99.90
59148;DHT22;44930;52.878;6.168;2023-11-19T18:23:44;11.00;99.90
59148;DHT22;44930;52.878;6.168;2023-11-19T18:26:11;11.00;99.90
59148;DHT22;44930;52.878;6.168;2023-11-19T18:28:37;11.10;99.90
59148;DHT22;44930;52.878;6.168;2023-11-19T18:31:02;11.00;99.90
59148;DHT22;44930;52.878;6.168;2023-11-19T18:33:29;11.20;99.90
59148;DHT22;44930;52.878;6.168;2023-11-19T18:35:54;11.00;99.90
59148;DHT22;44930;52.878;6.168;2023-11-19T18:38:20;11.10;99.90
59148;DHT22;44930;52.878;6.168;2023-11-19T18:40:45;10.90;99.90
59148;DHT22;44930;52.878;6.168;2023-11-19T18:43:11;11.20;99.90
59148;DHT22;44930;52.878;6.168;2023-11-19T18:45:38;11.10;99.90
59148;DHT22;44930;52.878;6.168;2023-11-19T18:48:04;11.00;99.90
59148;DHT22;44930;52.878;6.168;2023-11-19T18:50:31;11.20;99.90
59148;DHT22;44930;52.878;6.168;2023-11-19T18:52:57;11.30;99.90
59148;DHT22;44930;52.878;6.168;2023-11-19T18:55:22;11.30;99.90
59148;DHT22;44930;52.878;6.168;2023-11-19T18:57:48;11.20;99.90
59148;DHT22;44930;52.878;6.168;2023-11-19T19:02:40;11.10;99.90
59148;DHT22;44930;52.878;6.168;2023-11-19T19:05:06;11.20;99.90
59148;DHT22;44930;52.878;6.168;2023-11-19T19:09:58;11.20;99.90
59148;DHT22;44930;52.878;6.168;2023-11-19T19:12:25;11.30;99.90
59148;DHT22;44930;52.878;6.168;2023-11-19T19:17:17;11.30;99.90
59148;DHT22;44930;52.878;6.168;2023-11-19T19:22:09;11.40;99.90
59148;DHT22;44930;52.878;6.168;2023-11-19T19:24:34;11.20;99.90
59148;DHT22;44930;52.878;6.168;2023-11-19T19:27:02;11.40;99.90
59148;DHT22;44930;52.878;6.168;2023-11-19T19:29:28;11.40;99.90
59148;DHT22;44930;52.878;6.168;2023-11-19T19:31:55;11.40;99.90
59148;DHT22;44930;52.878;6.168;2023-11-19T19:34:21;11.40;99.90
59148;DHT22;44930;52.878;6.168;2023-11-19T19:36:47;11.50;99.90
59148;DHT22;44930;52.878;6.168;2023-11-19T19:41:41;11.50;99.90
59148;DHT22;44930;52.878;6.168;2023-11-19T19:44:07;11.50;99.90
59148;DHT22;44930;52.878;6.168;2023-11-19T19:49:07;11.50;99.90